JTC427 KBED-KGSO
Flight info
| Callsign | JTC427 |
|---|---|
| Flight time | N/A |
| Altitude | 40000 |
| Route | SSOXS Q167 RIFLE HEADI Q97 SAWED COUPN RDU |
| Aircraft | CL60/M-SBDE1E2E3FGHIJ4J5J7M3RWXYZ/LB1V1D1 |
Departure
| Time | 2026-05-07 14:45 |
|---|---|
| Airport | Laurence G Hanscom Field (KBED) |
Arrival
| Time | N/A |
|---|---|
| Airport | Piedmont Triad International Airport (KGSO) |
| Time | Latitude | Longitude | Altitude | Speed | Heading |
|---|---|---|---|---|---|
| 2026-05-07 14:22 | 42.46373 | -71.29031 | 138 ft | 0 kts | 347° |
| 2026-05-07 14:40 | 42.46379 | -71.29031 | 139 ft | 4 kts | 5° |
| 2026-05-07 14:41 | 42.46431 | -71.29020 | 139 ft | 9 kts | 9° |
| 2026-05-07 14:41 | 42.46510 | -71.29005 | 139 ft | 13 kts | 10° |
| 2026-05-07 14:41 | 42.46576 | -71.28965 | 139 ft | 6 kts | 41° |
| 2026-05-07 14:41 | 42.46615 | -71.28921 | 139 ft | 9 kts | 40° |
| 2026-05-07 14:42 | 42.46684 | -71.28840 | 139 ft | 16 kts | 40° |
| 2026-05-07 14:42 | 42.46783 | -71.28735 | 139 ft | 19 kts | 44° |
| 2026-05-07 14:42 | 42.46831 | -71.28615 | 139 ft | 8 kts | 89° |
| 2026-05-07 14:42 | 42.46822 | -71.28507 | 139 ft | 15 kts | 98° |
| 2026-05-07 14:43 | 42.46805 | -71.28336 | 139 ft | 19 kts | 97° |
| 2026-05-07 14:43 | 42.46790 | -71.28133 | 139 ft | 22 kts | 94° |
| 2026-05-07 14:43 | 42.46772 | -71.27906 | 139 ft | 25 kts | 98° |
| 2026-05-07 14:43 | 42.46754 | -71.27663 | 139 ft | 22 kts | 74° |
| 2026-05-07 14:44 | 42.46878 | -71.27588 | 139 ft | 22 kts | 7° |
| 2026-05-07 14:44 | 42.46968 | -71.27760 | 139 ft | 57 kts | 282° |
| 2026-05-07 14:44 | 42.47066 | -71.28732 | 139 ft | 135 kts | 278° |
| 2026-05-07 14:44 | 42.47202 | -71.30083 | 615 ft | 152 kts | 278° |
| 2026-05-07 14:45 | 42.47319 | -71.31519 | 1707 ft | 160 kts | 279° |
| 2026-05-07 14:45 | 42.47417 | -71.33002 | 2687 ft | 179 kts | 272° |
| 2026-05-07 14:45 | 42.46893 | -71.34663 | 3595 ft | 215 kts | 229° |
| 2026-05-07 14:45 | 42.45573 | -71.35619 | 5030 ft | 228 kts | 202° |
| 2026-05-07 14:46 | 42.44080 | -71.36126 | 6543 ft | 230 kts | 200° |
| 2026-05-07 14:46 | 42.42587 | -71.36659 | 8175 ft | 221 kts | 211° |
| 2026-05-07 14:46 | 42.41258 | -71.37489 | 9573 ft | 222 kts | 214° |
| 2026-05-07 14:46 | 42.39824 | -71.38438 | 10499 ft | 246 kts | 214° |
| 2026-05-07 14:47 | 42.38158 | -71.39542 | 10979 ft | 284 kts | 213° |
| 2026-05-07 14:47 | 42.36284 | -71.40757 | 11938 ft | 302 kts | 212° |
| 2026-05-07 14:47 | 42.34382 | -71.41979 | 13122 ft | 308 kts | 212° |
| 2026-05-07 14:47 | 42.32465 | -71.43205 | 14341 ft | 311 kts | 212° |
| 2026-05-07 14:48 | 42.30487 | -71.44472 | 15447 ft | 316 kts | 212° |
| 2026-05-07 14:48 | 42.28490 | -71.45750 | 16472 ft | 322 kts | 212° |
| 2026-05-07 14:48 | 42.26431 | -71.47068 | 17385 ft | 330 kts | 211° |
| 2026-05-07 14:48 | 42.24368 | -71.48385 | 18311 ft | 335 kts | 211° |
| 2026-05-07 14:49 | 42.22253 | -71.49734 | 19262 ft | 338 kts | 212° |
| 2026-05-07 14:49 | 42.20110 | -71.51099 | 20168 ft | 341 kts | 213° |
| 2026-05-07 14:49 | 42.17957 | -71.52470 | 21053 ft | 344 kts | 214° |
| 2026-05-07 14:49 | 42.15775 | -71.53857 | 21909 ft | 346 kts | 214° |
| 2026-05-07 14:50 | 42.13596 | -71.55244 | 22734 ft | 348 kts | 214° |
| 2026-05-07 14:50 | 42.11394 | -71.56643 | 23445 ft | 352 kts | 216° |
| 2026-05-07 14:50 | 42.09174 | -71.58054 | 24095 ft | 356 kts | 216° |
| 2026-05-07 14:50 | 42.06936 | -71.59470 | 24995 ft | 352 kts | 216° |
| 2026-05-07 14:51 | 42.04720 | -71.60870 | 25803 ft | 350 kts | 217° |
| 2026-05-07 14:51 | 42.02536 | -71.62244 | 26844 ft | 340 kts | 217° |
| 2026-05-07 14:51 | 42.00446 | -71.63555 | 27890 ft | 329 kts | 218° |
| 2026-05-07 14:51 | 41.98401 | -71.64839 | 28898 ft | 318 kts | 218° |
| 2026-05-07 14:52 | 41.96423 | -71.66081 | 29809 ft | 310 kts | 218° |
| 2026-05-07 14:52 | 41.94471 | -71.67311 | 30616 ft | 305 kts | 219° |
| 2026-05-07 14:52 | 41.92553 | -71.68522 | 31332 ft | 301 kts | 219° |
| 2026-05-07 14:52 | 41.90643 | -71.69730 | 31953 ft | 300 kts | 219° |
| 2026-05-07 14:53 | 41.88726 | -71.70942 | 32477 ft | 301 kts | 219° |
| 2026-05-07 14:53 | 41.86809 | -71.72154 | 32981 ft | 302 kts | 220° |